Time;durP1;ratioP1;P1;durP2;ratioP2;P2;SDS_P1;SDS_P2;PMS_P1;PMS_P2;Temp;Humidity;BMP_temperature;BMP_pressure;BME280_temperature;BME280_humidity;BME280_pressure;Samples;Min_cycle;Max_cycle;Signal;HPM_P1;HPM_P2
2024/03/29 00:02:55;;;;;;;;;;;;;;;16.43;50.09;97452.91;67984;1275;1017002;-67
2024/03/29 00:06:00;;;;;;;;;;;;;;;16.35;50.29;97453.39;67991;1275;1016470;-65
2024/03/29 00:09:06;;;;;;;;;;;;;;;16.32;50.29;97460.23;68006;1275;1019284;-67
2024/03/29 00:12:10;;;;;;;;;;;;;;;16.32;50.48;97458.28;67979;1275;1018536;-65
2024/03/29 00:15:15;;;;;;;;;;;;;;;16.39;49.93;97460.58;67991;1275;1016430;-61
2024/03/29 00:18:20;;;;;;;;;;;;;;;16.41;49.56;97464.02;68012;1275;1016106;-67
2024/03/29 00:21:24;;;;;;;;;;;;;;;16.59;48.87;97459.83;68006;1275;1016472;-67
2024/03/29 00:24:27;;;;;;;;;;;;;;;16.71;48.75;97465.80;68032;1275;1016335;-67
2024/03/29 00:27:32;;;;;;;;;;;;;;;16.57;48.87;97457.09;68002;1275;1016449;-63
2024/03/29 00:30:37;;;;;;;;;;;;;;;16.62;48.50;97454.94;68055;1275;1016389;-67
2024/03/29 00:33:42;;;;;;;;;;;;;;;16.74;47.86;97452.77;67923;1275;1016504;-66
2024/03/29 00:36:47;;;;;;;;;;;;;;;16.82;47.75;97451.02;68006;1275;1016414;-64
2024/03/29 00:39:52;;;;;;;;;;;;;;;17.00;47.14;97448.71;67966;1275;1016518;-66
2024/03/29 00:42:56;;;;;;;;;;;;;;;17.09;46.96;97434.36;67976;1275;1017300;-67
2024/03/29 00:45:59;;;;;;;;;;;;;;;17.13;46.70;97434.02;68004;1275;1016481;-61
2024/03/29 00:49:03;;;;;;;;;;;;;;;17.20;46.49;97433.84;68032;1275;1016421;-67
2024/03/29 00:52:07;;;;;;;;;;;;;;;17.17;46.40;97431.40;67998;1275;1016206;-68
2024/03/29 00:55:13;;;;;;;;;;;;;;;17.16;46.38;97442.06;67917;1275;1016496;-67
2024/03/29 00:58:18;;;;;;;;;;;;;;;17.16;46.46;97454.81;67896;1275;1016404;-68
2024/03/29 01:01:23;;;;;;;;;;;;;;;17.15;46.55;97467.60;67999;1275;1016338;-67
2024/03/29 01:04:27;;;;;;;;;;;;;;;17.21;46.42;97480.00;68005;1275;1016452;-66
2024/03/29 01:07:30;;;;;;;;;;;;;;;17.14;46.60;97491.73;67980;1275;1016070;-64
2024/03/29 01:10:34;;;;;;;;;;;;;;;17.22;46.35;97493.52;67997;1275;1018179;-64
2024/03/29 01:13:38;;;;;;;;;;;;;;;17.25;46.32;97504.24;68011;1275;1016455;-68
2024/03/29 01:16:42;;;;;;;;;;;;;;;17.20;46.30;97517.07;67840;1275;1016380;-66
2024/03/29 01:19:47;;;;;;;;;;;;;;;17.38;45.78;97528.86;67901;1275;1016087;-68
2024/03/29 01:22:51;;;;;;;;;;;;;;;17.46;45.73;97533.45;68037;1275;1016270;-63
2024/03/29 01:25:55;;;;;;;;;;;;;;;17.35;46.15;97538.58;68053;1275;1016466;-67
2024/03/29 01:29:00;;;;;;;;;;;;;;;17.20;46.41;97545.13;68003;1275;1019348;-67
2024/03/29 01:32:04;;;;;;;;;;;;;;;17.15;46.42;97556.11;67977;1275;1016405;-68
2024/03/29 01:35:08;;;;;;;;;;;;;;;17.18;46.30;97570.08;67948;1275;1016510;-67
2024/03/29 01:38:13;;;;;;;;;;;;;;;17.32;46.03;97573.20;68020;1275;1016422;-68
2024/03/29 01:41:18;;;;;;;;;;;;;;;17.06;46.71;97581.91;67986;1275;1016359;-62
2024/03/29 01:44:26;;;;;;;;;;;;;;;17.08;46.45;97582.60;68012;1275;1016035;-68
2024/03/29 01:47:31;;;;;;;;;;;;;;;17.10;46.40;97590.52;68027;1275;1016339;-62
2024/03/29 01:50:35;;;;;;;;;;;;;;;16.96;46.41;97602.92;68027;1275;1017232;-66
2024/03/29 01:53:40;;;;;;;;;;;;;;;16.83;46.58;97607.69;67993;1275;1016513;-64
2024/03/29 01:56:45;;;;;;;;;;;;;;;16.75;46.63;97622.55;68033;1275;1016455;-67
2024/03/29 01:59:49;;;;;;;;;;;;;;;16.94;46.18;97635.09;68051;1275;1016363;-68
2024/03/29 02:02:53;;;;;;;;;;;;;;;16.99;45.85;97641.99;67914;1275;1016621;-66
2024/03/29 02:05:59;;;;;;;;;;;;;;;16.77;46.24;97652.90;68025;1275;1016425;-68
2024/03/29 02:09:03;;;;;;;;;;;;;;;16.59;46.42;97659.10;68047;1275;1016158;-67
2024/03/29 02:12:09;;;;;;;;;;;;;;;16.35;47.15;97664.70;68011;1275;1018362;-67
2024/03/29 02:15:13;;;;;;;;;;;;;;;16.45;46.79;97662.11;68066;1275;1016381;-67
2024/03/29 02:18:16;;;;;;;;;;;;;;;16.24;47.26;97675.86;67877;1275;1016104;-68
2024/03/29 02:21:20;;;;;;;;;;;;;;;16.15;47.40;97682.33;67948;1275;1016183;-66
2024/03/29 02:24:24;;;;;;;;;;;;;;;16.16;47.42;97682.50;68008;1275;1015905;-68
2024/03/29 02:27:29;;;;;;;;;;;;;;;16.04;47.68;97684.75;68007;1275;1016733;-66
2024/03/29 02:30:33;;;;;;;;;;;;;;;16.02;47.61;97693.30;68057;1275;1016431;-66
2024/03/29 02:33:39;;;;;;;;;;;;;;;16.14;47.08;97701.63;68002;1275;1016313;-67
2024/03/29 02:36:45;;;;;;;;;;;;;;;16.15;47.11;97715.09;67965;1275;1016445;-67
2024/03/29 02:39:48;;;;;;;;;;;;;;;16.14;47.32;97722.08;67966;1275;1016673;-68
2024/03/29 02:42:52;;;;;;;;;;;;;;;16.10;47.34;97722.08;68020;1275;1017527;-62
2024/03/29 02:45:57;;;;;;;;;;;;;;;16.03;47.52;97728.64;67987;1275;1016553;-62
2024/03/29 02:49:02;;;;;;;;;;;;;;;15.98;47.58;97740.44;67951;1275;1016914;-67
2024/03/29 02:52:06;;;;;;;;;;;;;;;15.98;47.39;97745.49;68051;1275;1016517;-67
2024/03/29 02:55:11;;;;;;;;;;;;;;;16.01;47.39;97751.21;67995;1275;1016329;-65
2024/03/29 02:58:16;;;;;;;;;;;;;;;16.00;47.12;97753.08;67998;1275;1016026;-67
2024/03/29 03:01:19;;;;;;;;;;;;;;;15.86;47.49;97761.34;67858;1275;1016104;-68
2024/03/29 03:04:23;;;;;;;;;;;;;;;15.95;47.05;97761.34;67998;1275;1016398;-67
2024/03/29 03:11:03;;;;;;;;;;;;;;;16.08;46.39;97775.74;68051;1275;1016282;-68
2024/03/29 03:14:08;;;;;;;;;;;;;;;15.84;46.91;97775.30;67972;1275;1016414;-68
2024/03/29 03:17:14;;;;;;;;;;;;;;;16.21;46.10;97782.92;68012;1275;1016214;-67
2024/03/29 03:20:19;;;;;;;;;;;;;;;15.91;46.23;97786.38;67979;1275;1016533;-67
2024/03/29 03:23:23;;;;;;;;;;;;;;;15.84;46.52;97792.42;67998;1275;1016401;-68
2024/03/29 03:26:29;;;;;;;;;;;;;;;15.83;46.46;97796.73;67970;1275;1016443;-68
2024/03/29 03:29:33;;;;;;;;;;;;;;;15.78;46.41;97797.39;68001;1275;1016304;-62
2024/03/29 03:32:39;;;;;;;;;;;;;;;15.88;45.87;97807.50;67949;1275;1016472;-67
2024/03/29 03:35:43;;;;;;;;;;;;;;;15.79;46.31;97817.52;67990;1275;1016481;-67
2024/03/29 03:38:48;;;;;;;;;;;;;;;15.68;46.57;97827.41;67989;1275;1016371;-68
2024/03/29 03:41:52;;;;;;;;;;;;;;;15.62;47.01;97828.53;67828;1275;1016350;-67
2024/03/29 03:44:55;;;;;;;;;;;;;;;15.53;47.13;97830.69;68020;1275;1016471;-67
2024/03/29 03:48:00;;;;;;;;;;;;;;;15.63;46.67;97831.29;68044;1275;1019380;-62
2024/03/29 03:51:06;;;;;;;;;;;;;;;15.70;46.31;97832.82;68033;1275;1017166;-68
2024/03/29 03:54:11;;;;;;;;;;;;;;;15.78;46.28;97835.13;68024;1275;1016174;-66
2024/03/29 03:57:15;;;;;;;;;;;;;;;15.81;45.60;97836.38;68041;1275;1016590;-68
2024/03/29 04:00:19;;;;;;;;;;;;;;;15.79;45.79;97844.52;68068;1275;1016431;-67
2024/03/29 04:03:24;;;;;;;;;;;;;;;15.89;45.49;97846.49;67987;1275;1015818;-68
2024/03/29 04:06:27;;;;;;;;;;;;;;;15.81;45.38;97846.95;68026;1275;1016407;-68
2024/03/29 04:09:31;;;;;;;;;;;;;;;15.75;45.50;97848.08;68026;1275;1018084;-64
2024/03/29 04:12:36;;;;;;;;;;;;;;;15.52;45.93;97847.66;68039;1275;1018945;-67
2024/03/29 04:15:40;;;;;;;;;;;;;;;15.46;45.89;97847.52;68024;1275;1016311;-67
2024/03/29 04:18:45;;;;;;;;;;;;;;;15.77;45.11;97846.52;68049;1275;1016277;-67
2024/03/29 04:21:50;;;;;;;;;;;;;;;15.46;45.73;97844.39;68077;1275;1016582;-67
2024/03/29 04:24:54;;;;;;;;;;;;;;;15.63;45.44;97843.52;67997;1275;1016404;-67
2024/03/29 04:27:57;;;;;;;;;;;;;;;16.08;44.33;97840.63;68089;1275;1016372;-67
2024/03/29 04:31:03;;;;;;;;;;;;;;;16.00;44.26;97844.95;67999;1275;1016662;-62
2024/03/29 04:34:07;;;;;;;;;;;;;;;15.83;44.47;97849.19;68055;1275;1016376;-68
2024/03/29 04:37:13;;;;;;;;;;;;;;;16.03;44.15;97848.16;68070;1275;1016715;-67
2024/03/29 04:40:18;;;;;;;;;;;;;;;16.03;44.03;97845.66;68069;1275;1016301;-67
2024/03/29 04:43:23;;;;;;;;;;;;;;;16.15;43.84;97843.63;68034;1275;1016233;-67
2024/03/29 04:46:28;;;;;;;;;;;;;;;16.34;43.46;97841.75;67975;1275;1016157;-68
2024/03/29 04:49:36;;;;;;;;;;;;;;;16.46;43.17;97841.24;67946;1275;1015930;-67
2024/03/29 04:52:41;;;;;;;;;;;;;;;16.46;43.26;97844.08;68011;1275;1019375;-64
2024/03/29 04:55:48;;;;;;;;;;;;;;;16.62;43.05;97843.16;68002;1275;1016010;-67
2024/03/29 04:58:53;;;;;;;;;;;;;;;16.72;43.02;97850.44;67987;1275;1016446;-62
2024/03/29 05:01:58;;;;;;;;;;;;;;;16.63;43.07;97860.73;68061;1275;1016081;-67
2024/03/29 05:05:03;;;;;;;;;;;;;;;16.74;43.15;97863.70;68009;1275;1016796;-67
2024/03/29 05:08:07;;;;;;;;;;;;;;;16.63;43.37;97868.52;68035;1275;1016387;-68
2024/03/29 05:11:14;;;;;;;;;;;;;;;16.66;43.64;97868.55;68026;1275;1018160;-64
2024/03/29 05:14:18;;;;;;;;;;;;;;;16.95;43.16;97872.88;68064;1275;1016726;-67
2024/03/29 05:17:25;;;;;;;;;;;;;;;17.00;43.14;97875.36;68082;1275;1016143;-61
2024/03/29 05:20:29;;;;;;;;;;;;;;;17.17;43.05;97878.10;68078;1275;1016324;-67
2024/03/29 05:23:34;;;;;;;;;;;;;;;17.28;43.02;97876.02;68045;1275;1016033;-67
2024/03/29 05:26:39;;;;;;;;;;;;;;;17.33;43.01;97886.50;68064;1275;1016002;-67
2024/03/29 05:29:44;;;;;;;;;;;;;;;17.34;42.92;97898.51;67917;1275;1016426;-62
2024/03/29 05:32:50;;;;;;;;;;;;;;;17.34;42.95;97909.83;68006;1275;1016631;-67
2024/03/29 05:35:55;;;;;;;;;;;;;;;17.48;42.87;97920.45;68011;1275;1016231;-66
2024/03/29 05:38:58;;;;;;;;;;;;;;;17.45;43.23;97928.33;68026;1275;1016004;-64
2024/03/29 05:42:04;;;;;;;;;;;;;;;17.59;43.05;97929.58;68076;1275;1016332;-62
2024/03/29 05:45:08;;;;;;;;;;;;;;;17.85;42.50;97935.11;68016;1275;1016467;-67
2024/03/29 05:48:12;;;;;;;;;;;;;;;17.84;42.47;97945.83;67990;1275;1016948;-63
2024/03/29 05:51:17;;;;;;;;;;;;;;;18.07;42.41;97938.14;67885;1275;1017696;-68
2024/03/29 05:54:22;;;;;;;;;;;;;;;18.17;41.96;97958.32;67998;1275;1016405;-64
2024/03/29 05:57:30;;;;;;;;;;;;;;;18.38;41.91;97968.70;68055;1275;1017364;-67
2024/03/29 06:00:35;;;;;;;;;;;;;;;18.30;42.15;97958.71;68030;1275;1016528;-63
2024/03/29 06:03:39;;;;;;;;;;;;;;;18.57;41.94;97948.46;65476;1275;6401514;-67
2024/03/29 06:06:44;;;;;;;;;;;;;;;18.79;41.53;97951.72;68057;1275;1016017;-64
2024/03/29 06:09:49;;;;;;;;;;;;;;;18.76;41.36;97956.83;68043;1275;1016647;-67
2024/03/29 06:12:53;;;;;;;;;;;;;;;18.74;41.44;97967.16;68012;1275;1016429;-62
2024/03/29 06:19:19;;;;;;;;;;;;;;;19.04;41.39;97962.34;67949;1275;1016004;-68
2024/03/29 06:22:25;;;;;;;;;;;;;;;18.99;41.16;97956.66;68040;1275;1016423;-67
2024/03/29 06:25:30;;;;;;;;;;;;;;;19.23;41.45;97960.82;68017;1275;1016469;-67
2024/03/29 06:28:35;;;;;;;;;;;;;;;19.27;41.28;97968.13;68034;1275;1016037;-65
2024/03/29 06:31:40;;;;;;;;;;;;;;;19.38;41.36;97971.34;67936;1275;1016511;-62
2024/03/29 06:34:44;;;;;;;;;;;;;;;19.61;41.04;97977.98;68053;1275;1016306;-67
2024/03/29 06:37:49;;;;;;;;;;;;;;;19.40;40.86;97981.61;68054;1275;1016445;-67
2024/03/29 06:40:54;;;;;;;;;;;;;;;19.58;40.71;97992.69;68042;1275;1016497;-64
2024/03/29 06:44:01;;;;;;;;;;;;;;;19.62;40.36;97999.35;68044;1275;1016498;-66
2024/03/29 06:47:06;;;;;;;;;;;;;;;19.76;40.29;98013.25;68058;1275;1016846;-63
2024/03/29 06:50:10;;;;;;;;;;;;;;;19.70;40.22;98009.61;68031;1275;1016659;-67
2024/03/29 06:53:17;;;;;;;;;;;;;;;19.86;39.99;98004.16;68090;1275;1016428;-66
2024/03/29 06:56:21;;;;;;;;;;;;;;;19.99;39.74;98010.23;67999;1275;1016291;-68
2024/03/29 06:59:26;;;;;;;;;;;;;;;19.93;39.49;98006.77;68029;1275;1016466;-67
2024/03/29 07:02:31;;;;;;;;;;;;;;;20.28;39.69;98001.94;67984;1275;1016451;-67
2024/03/29 07:05:36;;;;;;;;;;;;;;;20.67;38.96;98000.27;67994;1275;1016783;-66
2024/03/29 07:08:40;;;;;;;;;;;;;;;20.87;38.44;97995.54;68035;1275;1016233;-67
2024/03/29 07:11:47;;;;;;;;;;;;;;;21.08;38.21;97998.70;68008;1275;1016423;-63
2024/03/29 07:14:51;;;;;;;;;;;;;;;21.42;38.09;98001.66;67909;1275;1016717;-67
2024/03/29 07:17:56;;;;;;;;;;;;;;;21.39;37.80;97984.41;68025;1275;1016431;-63
2024/03/29 07:21:00;;;;;;;;;;;;;;;21.40;36.99;97981.48;68055;1275;1016456;-63
2024/03/29 07:24:05;;;;;;;;;;;;;;;21.68;38.02;97974.42;68069;1275;1016791;-67
2024/03/29 07:27:09;;;;;;;;;;;;;;;21.83;37.38;97964.49;67921;1275;1016347;-67
2024/03/29 07:30:13;;;;;;;;;;;;;;;22.09;37.20;97962.15;68022;1275;1016491;-67
2024/03/29 07:33:17;;;;;;;;;;;;;;;21.93;36.88;97962.65;68028;1275;1016430;-67
2024/03/29 07:36:24;;;;;;;;;;;;;;;22.13;37.00;97954.73;68044;1275;1016356;-66
2024/03/29 07:39:30;;;;;;;;;;;;;;;22.40;36.54;97954.42;68009;1275;1018677;-66
2024/03/29 07:42:35;;;;;;;;;;;;;;;22.58;35.92;97967.10;67958;1275;1016515;-63
2024/03/29 07:45:38;;;;;;;;;;;;;;;22.80;35.66;97983.77;68025;1275;1016432;-68
2024/03/29 07:48:41;;;;;;;;;;;;;;;22.53;34.78;97995.95;68067;1275;1016490;-67
2024/03/29 07:51:46;;;;;;;;;;;;;;;22.18;35.10;97992.73;68011;1275;1016408;-67
2024/03/29 07:54:51;;;;;;;;;;;;;;;22.54;35.01;97995.09;68077;1275;1016446;-67
2024/03/29 07:57:58;;;;;;;;;;;;;;;22.67;34.87;98003.77;68010;1275;1016250;-67
2024/03/29 08:01:03;;;;;;;;;;;;;;;22.74;33.58;98003.01;68022;1275;1019920;-63
2024/03/29 08:04:07;;;;;;;;;;;;;;;22.91;34.76;98004.08;68042;1275;1016101;-67
2024/03/29 08:07:12;;;;;;;;;;;;;;;23.05;33.69;97999.30;68018;1275;1015984;-65
2024/03/29 08:10:15;;;;;;;;;;;;;;;23.01;34.02;98001.14;68073;1275;1016378;-62
2024/03/29 08:13:21;;;;;;;;;;;;;;;23.29;34.10;98003.81;68057;1275;1016555;-67
2024/03/29 08:16:24;;;;;;;;;;;;;;;23.65;33.92;98005.42;68004;1275;1016470;-63
2024/03/29 08:19:29;;;;;;;;;;;;;;;24.00;32.83;98005.63;68055;1275;1016080;-65
2024/03/29 08:22:34;;;;;;;;;;;;;;;23.83;32.06;98004.08;68026;1275;1016027;-63
2024/03/29 08:25:40;;;;;;;;;;;;;;;23.76;32.38;98011.34;68051;1275;1016378;-64
2024/03/29 08:28:43;;;;;;;;;;;;;;;24.26;32.91;98018.86;68018;1275;1016033;-62
2024/03/29 08:31:46;;;;;;;;;;;;;;;24.21;32.63;98019.19;68027;1275;1016570;-67
2024/03/29 08:34:52;;;;;;;;;;;;;;;24.48;32.82;98019.34;67931;1275;1016084;-66
2024/03/29 08:37:56;;;;;;;;;;;;;;;24.76;32.40;98015.66;68035;1275;1016508;-67
2024/03/29 08:41:00;;;;;;;;;;;;;;;24.91;31.89;98009.45;68014;1275;1016289;-63
2024/03/29 08:44:05;;;;;;;;;;;;;;;25.08;31.49;98009.65;68024;1275;1018873;-66
2024/03/29 08:47:11;;;;;;;;;;;;;;;25.11;31.21;98010.84;68059;1275;1016430;-68
2024/03/29 08:50:16;;;;;;;;;;;;;;;25.31;30.82;98014.45;68062;1275;1016466;-63
2024/03/29 08:53:21;;;;;;;;;;;;;;;25.40;30.26;98023.08;68026;1275;1015758;-67
2024/03/29 08:56:25;;;;;;;;;;;;;;;25.38;30.27;98027.52;68035;1275;1016143;-66
2024/03/29 08:59:30;;;;;;;;;;;;;;;25.45;29.88;98029.58;68070;1275;1016204;-67
2024/03/29 09:02:36;;;;;;;;;;;;;;;25.63;29.82;98032.61;68051;1275;1016557;-65
2024/03/29 09:05:41;;;;;;;;;;;;;;;25.74;29.61;98026.71;68051;1275;1018709;-67
2024/03/29 09:08:46;;;;;;;;;;;;;;;25.79;30.05;98016.70;68046;1275;1018244;-67
2024/03/29 09:11:52;;;;;;;;;;;;;;;25.90;28.48;98014.85;68027;1275;1016179;-66
2024/03/29 09:14:57;;;;;;;;;;;;;;;25.23;29.59;98018.39;68057;1275;1016782;-67
2024/03/29 09:18:09;;;;;;;;;;;;;;;25.33;29.73;98022.95;68055;1275;1016174;-67
2024/03/29 09:21:14;;;;;;;;;;;;;;;25.66;28.79;98030.70;68081;1275;1016795;-67
2024/03/29 09:24:22;;;;;;;;;;;;;;;25.79;27.87;98038.52;68039;1275;1016487;-67
2024/03/29 09:27:28;;;;;;;;;;;;;;;25.30;27.45;98050.21;68070;1275;1015975;-67
2024/03/29 09:30:32;;;;;;;;;;;;;;;25.14;28.28;98047.49;67992;1275;1016858;-67
2024/03/29 09:33:36;;;;;;;;;;;;;;;25.24;28.03;98047.09;67949;1275;1016266;-66
2024/03/29 09:36:40;;;;;;;;;;;;;;;25.34;27.82;98054.41;67989;1275;1016138;-67
2024/03/29 09:39:45;;;;;;;;;;;;;;;25.21;27.34;98052.08;68039;1275;1016455;-66
2024/03/29 09:42:49;;;;;;;;;;;;;;;25.20;27.79;98050.31;68014;1274;1016264;-67
2024/03/29 09:45:54;;;;;;;;;;;;;;;25.60;27.91;98049.23;68053;1275;1016518;-63
2024/03/29 09:48:59;;;;;;;;;;;;;;;25.52;27.09;98053.73;68047;1275;1016274;-66
2024/03/29 09:52:04;;;;;;;;;;;;;;;25.62;27.76;98051.28;68070;1275;1016755;-63
2024/03/29 09:55:09;;;;;;;;;;;;;;;25.97;27.76;98050.95;67996;1275;1016534;-67
2024/03/29 09:58:13;;;;;;;;;;;;;;;26.40;26.89;98044.35;68058;1275;1016529;-63
2024/03/29 10:01:18;;;;;;;;;;;;;;;26.78;26.91;98042.98;68008;1275;1016158;-67
2024/03/29 10:04:26;;;;;;;;;;;;;;;26.82;26.80;98036.98;68014;1275;1016538;-67
2024/03/29 10:07:32;;;;;;;;;;;;;;;27.05;27.12;98035.14;68027;1275;1016652;-66
2024/03/29 10:10:36;;;;;;;;;;;;;;;27.20;26.15;98023.52;68005;1275;1016170;-63
2024/03/29 10:13:40;;;;;;;;;;;;;;;27.08;25.56;98038.93;68051;1275;1016701;-65
2024/03/29 10:16:45;;;;;;;;;;;;;;;27.09;25.81;98045.80;68077;1275;1016588;-64
2024/03/29 10:19:50;;;;;;;;;;;;;;;27.08;25.64;98059.26;68047;1275;1016477;-65
2024/03/29 10:22:55;;;;;;;;;;;;;;;27.19;25.28;98059.49;68029;1275;1016607;-63
2024/03/29 10:25:59;;;;;;;;;;;;;;;27.27;25.05;98062.70;68007;1275;1016764;-67
2024/03/29 10:29:06;;;;;;;;;;;;;;;27.24;25.01;98066.55;68035;1275;1016151;-66
2024/03/29 10:32:11;;;;;;;;;;;;;;;27.33;24.71;98068.34;67983;1275;1016463;-67
2024/03/29 10:35:17;;;;;;;;;;;;;;;27.32;24.92;98068.85;68000;1275;1018094;-66
2024/03/29 10:38:23;;;;;;;;;;;;;;;27.44;24.82;98054.55;68004;1275;1016437;-64
2024/03/29 10:41:28;;;;;;;;;;;;;;;27.55;24.33;98045.59;68069;1275;1017917;-65
2024/03/29 10:44:35;;;;;;;;;;;;;;;27.67;24.34;98046.75;68056;1275;1016177;-63
2024/03/29 10:47:41;;;;;;;;;;;;;;;27.90;24.16;98052.91;68008;1275;1016234;-65
2024/03/29 10:50:45;;;;;;;;;;;;;;;28.20;22.83;98044.48;68022;1275;1016339;-64
2024/03/29 10:53:49;;;;;;;;;;;;;;;27.72;22.79;98051.95;68017;1275;1016214;-63
2024/03/29 10:56:54;;;;;;;;;;;;;;;27.23;23.41;98042.95;68063;1275;1018786;-63
2024/03/29 10:59:59;;;;;;;;;;;;;;;27.53;23.39;98033.45;68080;1275;1017095;-65
2024/03/29 11:03:04;;;;;;;;;;;;;;;27.90;23.71;98038.92;68028;1275;1016938;-64
2024/03/29 11:06:09;;;;;;;;;;;;;;;27.66;23.03;98035.31;67995;1275;1018212;-65
2024/03/29 11:12:56;;;;;;;;;;;;;;;27.42;22.84;98024.98;67978;1275;1016368;-65
2024/03/29 11:16:01;;;;;;;;;;;;;;;27.67;23.49;98022.66;68012;1275;1016476;-61
2024/03/29 11:19:06;;;;;;;;;;;;;;;28.04;23.47;98013.86;68037;1275;1016497;-64
2024/03/29 11:22:10;;;;;;;;;;;;;;;28.34;23.11;98011.65;68019;1275;1016947;-64
2024/03/29 11:25:14;;;;;;;;;;;;;;;28.42;23.19;98006.90;67982;1275;1016430;-64
2024/03/29 11:28:21;;;;;;;;;;;;;;;28.42;23.28;98008.80;68046;1275;1016319;-64
2024/03/29 11:31:26;;;;;;;;;;;;;;;28.25;23.02;97993.67;68005;1275;1016065;-62
2024/03/29 11:34:31;;;;;;;;;;;;;;;28.41;23.07;97992.31;68059;1275;1016095;-65
2024/03/29 11:37:36;;;;;;;;;;;;;;;28.74;23.47;97992.33;68063;1275;1015992;-61
2024/03/29 11:40:41;;;;;;;;;;;;;;;28.75;23.21;97985.52;67996;1275;1016421;-61
2024/03/29 11:43:45;;;;;;;;;;;;;;;29.08;21.98;97976.77;68010;1275;1016390;-61
2024/03/29 11:46:49;;;;;;;;;;;;;;;28.98;22.12;97979.00;68013;1275;1016553;-65
2024/03/29 11:49:55;;;;;;;;;;;;;;;28.93;22.11;97974.56;68055;1275;1016071;-65
2024/03/29 11:53:00;;;;;;;;;;;;;;;28.92;22.01;97975.00;68075;1275;1016446;-64
2024/03/29 11:56:05;;;;;;;;;;;;;;;28.62;21.41;97977.62;68068;1274;1016186;-62
2024/03/29 11:59:09;;;;;;;;;;;;;;;28.85;21.87;97970.89;68064;1275;1016904;-64
2024/03/29 12:02:14;;;;;;;;;;;;;;;28.36;21.22;97976.06;68017;1275;1016468;-66
2024/03/29 12:05:18;;;;;;;;;;;;;;;28.00;21.01;97980.10;68041;1275;1016721;-60
2024/03/29 12:15:51;;;;;;;;;;;;;;;28.35;21.10;97965.61;67986;1274;1016011;-62
2024/03/29 12:18:55;;;;;;;;;;;;;;;28.72;20.54;97958.73;68598;1275;1016757;-62
2024/03/29 12:22:02;;;;;;;;;;;;;;;28.85;20.34;97957.80;68611;1275;1015615;-63
2024/03/29 12:25:06;;;;;;;;;;;;;;;28.76;20.47;97959.04;68623;1275;1016260;-62
2024/03/29 12:28:11;;;;;;;;;;;;;;;29.18;20.64;97956.57;68077;1275;1016416;-62
2024/03/29 12:31:15;;;;;;;;;;;;;;;29.38;19.92;97952.70;67985;1275;1016318;-62
2024/03/29 12:34:19;;;;;;;;;;;;;;;29.23;19.97;97952.85;68070;1275;1016378;-64
2024/03/29 12:37:25;;;;;;;;;;;;;;;29.17;19.95;97942.15;67964;1275;1016243;-63
2024/03/29 12:40:35;;;;;;;;;;;;;;;29.29;20.05;97933.98;68009;1275;1016431;-63
2024/03/29 12:43:39;;;;;;;;;;;;;;;28.72;20.44;97941.60;68003;1275;1017273;-65
2024/03/29 12:46:43;;;;;;;;;;;;;;;28.26;20.82;97945.40;68077;1275;1016512;-65
2024/03/29 12:49:47;;;;;;;;;;;;;;;28.36;20.81;97948.65;68064;1275;1016313;-65
2024/03/29 12:52:51;;;;;;;;;;;;;;;28.30;20.64;97950.15;68050;1275;1016505;-65
2024/03/29 12:55:55;;;;;;;;;;;;;;;27.79;19.63;97952.08;68042;1275;1016453;-63
2024/03/29 12:59:00;;;;;;;;;;;;;;;27.59;20.66;97948.10;67998;1275;1016647;-65
2024/03/29 13:02:06;;;;;;;;;;;;;;;27.71;20.42;97936.65;68022;1275;1016492;-62
2024/03/29 13:05:10;;;;;;;;;;;;;;;27.55;21.06;97941.96;68027;1275;1016534;-65
2024/03/29 13:08:15;;;;;;;;;;;;;;;27.37;20.71;97946.38;68039;1275;1015807;-65
2024/03/29 13:11:19;;;;;;;;;;;;;;;27.14;20.43;97949.48;67987;1275;1016362;-64
2024/03/29 13:14:23;;;;;;;;;;;;;;;26.98;20.47;97952.16;68049;1275;1016481;-65
2024/03/29 13:17:28;;;;;;;;;;;;;;;26.83;20.76;97962.71;68076;1275;1017377;-64
2024/03/29 13:20:32;;;;;;;;;;;;;;;27.52;21.41;97965.69;68012;1275;1019693;-66
2024/03/29 13:23:36;;;;;;;;;;;;;;;27.55;20.84;97971.83;68030;1275;1016040;-62
2024/03/29 13:26:41;;;;;;;;;;;;;;;27.10;20.99;97974.08;67988;1274;1017944;-65
2024/03/29 13:29:43;;;;;;;;;;;;;;;27.73;21.69;97964.98;68002;1275;1016477;-65
2024/03/29 13:32:48;;;;;;;;;;;;;;;28.55;20.86;97957.79;68033;1275;1016305;-65
2024/03/29 13:35:53;;;;;;;;;;;;;;;29.09;20.43;97945.66;68036;1275;1016565;-65
2024/03/29 13:38:57;;;;;;;;;;;;;;;29.07;20.07;97936.13;68025;1275;1015853;-63
2024/03/29 13:42:02;;;;;;;;;;;;;;;29.29;20.07;97931.42;68008;1275;1016449;-62
2024/03/29 13:45:06;;;;;;;;;;;;;;;29.30;19.72;97935.08;68070;1275;1015977;-63
2024/03/29 13:48:11;;;;;;;;;;;;;;;29.35;20.15;97944.21;67989;1275;1016333;-65
2024/03/29 13:51:15;;;;;;;;;;;;;;;29.42;19.72;97939.13;68008;1275;1016001;-65
2024/03/29 13:54:21;;;;;;;;;;;;;;;29.81;19.74;97933.09;68066;1275;1016532;-65
2024/03/29 13:57:25;;;;;;;;;;;;;;;30.12;20.14;97927.93;68051;1275;1016467;-65
2024/03/29 14:00:32;;;;;;;;;;;;;;;30.57;19.11;97924.06;68016;1275;1016128;-63
2024/03/29 14:03:37;;;;;;;;;;;;;;;30.46;18.74;97922.09;68063;1275;1016526;-62
2024/03/29 14:06:41;;;;;;;;;;;;;;;30.35;18.40;97910.67;68069;1275;1016400;-65
2024/03/29 14:09:45;;;;;;;;;;;;;;;30.26;18.98;97911.00;68067;1275;1016505;-65
2024/03/29 14:12:53;;;;;;;;;;;;;;;30.23;18.60;97903.94;68005;1275;1016411;-65
2024/03/29 14:15:59;;;;;;;;;;;;;;;30.15;18.73;97900.60;67997;1275;1016143;-65
2024/03/29 14:19:03;;;;;;;;;;;;;;;30.29;19.10;97901.98;68072;1275;1016546;-65
2024/03/29 14:22:07;;;;;;;;;;;;;;;30.51;19.06;97910.48;68033;1275;1016492;-64
2024/03/29 14:25:12;;;;;;;;;;;;;;;30.40;18.94;97905.52;67985;1275;1016745;-65
2024/03/29 14:28:17;;;;;;;;;;;;;;;30.47;19.17;97903.92;68074;1275;1016418;-65
2024/03/29 14:31:22;;;;;;;;;;;;;;;30.46;18.93;97904.50;68021;1275;1015748;-64
2024/03/29 14:34:26;;;;;;;;;;;;;;;30.47;18.97;97904.20;67875;1275;1016262;-62
2024/03/29 14:37:32;;;;;;;;;;;;;;;30.91;19.14;97898.09;68051;1275;1016172;-65
2024/03/29 14:40:38;;;;;;;;;;;;;;;30.82;18.20;97889.87;68059;1275;1016514;-62
2024/03/29 14:43:44;;;;;;;;;;;;;;;30.82;18.75;97890.77;68047;1275;1016426;-62
2024/03/29 14:46:49;;;;;;;;;;;;;;;30.78;18.33;97895.81;68048;1275;1016170;-64
2024/03/29 14:49:53;;;;;;;;;;;;;;;30.53;18.30;97894.39;68040;1275;1016334;-65
2024/03/29 14:52:59;;;;;;;;;;;;;;;30.22;19.08;97902.98;68053;1275;1018850;-65
2024/03/29 14:56:03;;;;;;;;;;;;;;;29.99;19.08;97906.52;67948;1275;1016659;-65
2024/03/29 14:59:09;;;;;;;;;;;;;;;29.87;19.39;97901.59;67990;1275;1015825;-63
2024/03/29 15:02:13;;;;;;;;;;;;;;;30.03;19.49;97895.19;68054;1275;1016462;-65
2024/03/29 15:05:18;;;;;;;;;;;;;;;29.93;19.67;97894.35;68031;1275;1016541;-65
2024/03/29 15:08:22;;;;;;;;;;;;;;;29.82;19.41;97894.40;68033;1275;1016897;-65
2024/03/29 15:11:26;;;;;;;;;;;;;;;29.88;19.58;97896.80;67977;1275;1016096;-62
2024/03/29 15:14:31;;;;;;;;;;;;;;;29.76;19.62;97895.73;68037;1275;1016245;-65
2024/03/29 15:17:35;;;;;;;;;;;;;;;29.89;19.73;97896.36;68048;1275;1016454;-65
2024/03/29 15:20:40;;;;;;;;;;;;;;;30.52;19.53;97904.49;68003;1275;1016081;-65
2024/03/29 15:23:42;;;;;;;;;;;;;;;31.00;19.49;97906.60;67994;1275;1016455;-62
2024/03/29 15:26:51;;;;;;;;;;;;;;;31.53;19.26;97903.38;67866;1275;1016217;-63
2024/03/29 15:29:56;;;;;;;;;;;;;;;31.83;19.27;97903.63;67870;1275;1016270;-66
2024/03/29 15:33:01;;;;;;;;;;;;;;;32.01;18.98;97902.20;67851;1275;1016447;-62
2024/03/29 15:36:05;;;;;;;;;;;;;;;32.93;18.99;97894.99;68042;1275;1016197;-65
2024/03/29 15:39:10;;;;;;;;;;;;;;;34.79;17.24;97897.27;67956;1275;1016420;-66
2024/03/29 15:42:14;;;;;;;;;;;;;;;36.22;17.33;97890.60;67963;1275;1017240;-66
2024/03/29 15:45:17;;;;;;;;;;;;;;;37.67;16.77;97883.58;67984;1275;1018916;-63
2024/03/29 15:48:23;;;;;;;;;;;;;;;38.54;16.26;97888.95;67998;1275;1016508;-66
2024/03/29 15:51:27;;;;;;;;;;;;;;;38.81;16.17;97891.77;68030;1275;1016428;-64
2024/03/29 15:54:33;;;;;;;;;;;;;;;39.56;15.90;97892.52;67971;1275;1016082;-65
2024/03/29 15:57:40;;;;;;;;;;;;;;;40.40;15.41;97889.05;68054;1275;1015967;-65